Time;durP1;ratioP1;P1;durP2;ratioP2;P2;SDS_P1;SDS_P2;PMS_P1;PMS_P2;Temp;Humidity;BMP_temperature;BMP_pressure;BME280_temperature;BME280_humidity;BME280_pressure;Samples;Min_cycle;Max_cycle;Signal;HPM_P1;HPM_P2
2022/05/11 00:01:47;;;;;;;7.17;4.80;;;19.80;99.90;;;20.42;nan;100566.06;4948365;28;20695;-69
2022/05/11 00:04:16;;;;;;;5.80;5.00;;;19.70;99.90;;;20.48;nan;100569.84;4946421;29;20806;-68
2022/05/11 00:06:43;;;;;;;7.17;5.20;;;19.80;99.90;;;20.44;nan;100569.38;4951645;28;20636;-69
2022/05/11 00:09:13;;;;;;;5.87;5.00;;;19.80;99.90;;;20.37;nan;100575.53;4952622;28;21204;-68
2022/05/11 00:11:41;;;;;;;8.80;5.77;;;19.70;99.90;;;20.33;nan;100572.44;4952174;28;21275;-68
2022/05/11 00:14:09;;;;;;;6.90;5.77;;;19.70;99.90;;;20.35;nan;100561.66;4952906;28;21235;-69
2022/05/11 00:16:36;;;;;;;7.80;5.10;;;19.70;99.90;;;20.26;nan;100563.50;4953391;28;21247;-69
2022/05/11 00:19:03;;;;;;;6.00;5.00;;;19.60;99.90;;;20.32;nan;100561.97;4951539;28;20647;-70
2022/05/11 00:21:30;;;;;;;7.83;5.70;;;19.60;99.90;;;20.23;nan;100555.91;4935926;29;20656;-68
2022/05/11 00:23:58;;;;;;;6.97;5.63;;;19.60;99.90;;;20.23;nan;100560.41;4950990;28;20648;-70
2022/05/11 00:26:26;;;;;;;6.57;5.17;;;19.50;99.90;;;20.17;nan;100561.06;4951765;28;21199;-69
2022/05/11 00:28:53;;;;;;;5.47;4.97;;;19.50;99.90;;;20.20;nan;100558.06;4950830;29;20647;-69
2022/05/11 00:31:20;;;;;;;6.63;5.27;;;19.50;99.90;;;20.10;nan;100556.44;4950585;29;20632;-69
2022/05/11 00:33:47;;;;;;;6.80;5.07;;;19.50;99.90;;;20.10;nan;100561.72;4949814;29;21216;-69
2022/05/11 00:36:14;;;;;;;6.17;4.93;;;19.40;99.90;;;20.08;nan;100560.28;4934948;29;21002;-66
2022/05/11 00:38:41;;;;;;;7.00;5.53;;;19.40;99.90;;;20.06;nan;100555.13;4932160;29;20617;-68
2022/05/11 00:41:08;;;;;;;5.80;4.70;;;19.40;99.90;;;19.93;nan;100554.84;4933769;29;20621;-68
2022/05/11 00:43:58;;;;;;;6.90;5.67;;;19.30;99.90;;;19.92;nan;100553.22;4948047;29;20648;-69
2022/05/11 00:46:42;;;;;;;7.53;4.97;;;19.20;99.90;;;19.92;nan;100557.69;4950540;29;20632;-69
2022/05/11 00:49:33;;;;;;;5.43;4.50;;;19.20;99.90;;;19.78;nan;100551.28;4946846;29;20641;-69
2022/05/11 00:52:36;;;;;;;6.60;4.20;;;19.10;99.90;;;19.66;nan;100543.88;4950942;28;20671;-68
2022/05/11 00:55:11;;;;;;;12.23;6.00;;;19.00;99.90;;;19.64;nan;100549.34;4949674;29;20678;-68
2022/05/11 00:57:59;;;;;;;8.53;6.57;;;18.90;99.90;;;19.53;nan;100540.97;4946872;28;21219;-68
2022/05/11 01:00:27;;;;;;;6.50;5.90;;;18.90;99.90;;;19.59;nan;100543.72;4946622;29;20643;-70
2022/05/11 01:03:03;;;;;;;7.23;5.70;;;18.90;99.90;;;19.54;nan;100537.31;4952669;28;21045;-70
2022/05/11 01:05:31;;;;;;;7.03;5.70;;;18.90;99.90;;;19.53;nan;100536.47;4956158;28;20658;-69
2022/05/11 01:07:59;;;;;;;7.90;6.30;;;18.90;99.90;;;19.54;nan;100534.66;4954564;29;20718;-68
2022/05/11 01:10:29;;;;;;;14.07;6.47;;;18.90;99.90;;;19.55;nan;100534.47;4955933;28;21195;-68
2022/05/11 01:13:00;;;;;;;9.23;6.20;;;18.90;99.90;;;19.49;nan;100534.34;4954965;29;20664;-68
2022/05/11 01:15:31;;;;;;;9.27;6.30;;;18.80;99.90;;;19.46;nan;100543.47;4969757;28;20659;-68
2022/05/11 01:18:01;;;;;;;9.50;6.10;;;18.80;99.90;;;19.37;nan;100539.19;4937629;29;20632;-68
2022/05/11 01:20:31;;;;;;;7.10;5.33;;;18.80;99.90;;;19.31;nan;100537.19;4952556;28;20639;-69
2022/05/11 01:23:35;;;;;;;9.40;6.43;;;18.70;99.90;;;19.27;nan;100533.22;4953080;29;21028;-69
2022/05/11 01:26:03;;;;;;;8.47;5.80;;;18.70;99.90;;;19.20;nan;100532.25;4931851;29;20688;-67
2022/05/11 01:28:31;;;;;;;9.00;5.50;;;18.60;99.90;;;19.22;nan;100528.44;4944173;29;21220;-69
2022/05/11 01:31:08;;;;;;;6.97;6.17;;;18.60;99.90;;;19.21;nan;100534.69;4954522;28;20625;-68
2022/05/11 01:33:41;;;;;;;6.30;5.43;;;18.50;99.90;;;19.14;nan;100530.25;4953297;28;20643;-68
2022/05/11 01:36:34;;;;;;;6.23;5.03;;;18.50;99.90;;;19.15;nan;100523.97;4953924;28;20687;-69
2022/05/11 01:39:08;;;;;;;7.40;6.40;;;18.50;99.90;;;19.11;nan;100531.41;4953519;29;20604;-69
2022/05/11 01:41:41;;;;;;;6.67;5.60;;;18.50;99.90;;;19.07;nan;100526.63;4953213;29;20655;-68
2022/05/11 01:44:16;;;;;;;10.23;6.10;;;18.40;99.90;;;19.05;nan;100525.97;4955517;28;20631;-68
2022/05/11 01:46:53;;;;;;;7.80;5.70;;;18.40;99.90;;;19.04;nan;100519.03;4954983;28;20618;-68
2022/05/11 01:49:22;;;;;;;6.73;6.00;;;18.40;99.90;;;18.96;nan;100524.31;4941550;29;20651;-69
2022/05/11 01:51:50;;;;;;;5.73;5.17;;;18.30;99.90;;;18.91;nan;100526.66;4945582;29;20667;-68
2022/05/11 01:54:17;;;;;;;7.73;5.50;;;18.30;99.90;;;18.86;nan;100518.38;4954070;28;20608;-68
2022/05/11 01:56:44;;;;;;;7.70;6.33;;;18.30;99.90;;;18.89;nan;100518.06;4953165;28;20639;-68
2022/05/11 01:59:11;;;;;;;7.60;6.30;;;18.30;99.90;;;18.83;nan;100519.53;4954790;29;20619;-68
2022/05/11 02:01:40;;;;;;;7.27;5.90;;;18.20;99.90;;;18.77;nan;100520.22;4953885;29;20651;-69
2022/05/11 02:09:43;;;;;;;6.73;5.30;;;18.20;99.90;;;18.77;nan;100507.00;4952658;29;21034;-68
2022/05/11 02:12:12;;;;;;;14.90;5.97;;;18.20;99.90;;;18.79;nan;100510.28;4954238;29;21294;-68
2022/05/11 02:14:39;;;;;;;7.40;5.73;;;18.20;99.90;;;18.76;nan;100515.09;4950687;28;20687;-68
2022/05/11 02:17:07;;;;;;;6.70;5.33;;;18.10;99.90;;;18.69;nan;100509.63;4953756;28;21195;-68
2022/05/11 02:19:34;;;;;;;5.43;4.50;;;18.10;99.90;;;18.76;nan;100509.81;4953848;28;20636;-69
2022/05/11 02:22:01;;;;;;;8.63;5.47;;;18.10;99.90;;;18.74;nan;100517.06;4954493;29;21012;-68
2022/05/11 02:24:28;;;;;;;6.90;5.00;;;18.10;99.90;;;18.67;nan;100511.63;4952782;28;20760;-69
2022/05/11 02:26:55;;;;;;;6.50;5.43;;;18.00;99.90;;;18.67;nan;100511.63;4953850;28;21187;-68
2022/05/11 02:29:23;;;;;;;6.00;5.07;;;18.00;99.90;;;18.67;nan;100516.91;4954007;29;20653;-69
2022/05/11 02:31:50;;;;;;;6.80;5.23;;;18.10;99.90;;;18.73;nan;100513.59;4954860;28;20725;-70
2022/05/11 02:35:12;;;;;;;7.17;5.27;;;18.10;99.90;;;18.71;nan;100523.50;4953159;28;20636;-68
2022/05/11 02:37:04;;;;;;;7.37;5.83;;;18.10;99.90;;;18.52;nan;100518.56;4952477;28;20636;-69
2022/05/11 02:39:31;;;;;;;7.47;4.97;;;18.00;99.90;;;18.50;nan;100524.00;4952917;28;20641;-69
2022/05/11 02:42:00;;;;;;;6.90;5.50;;;17.90;99.90;;;18.47;nan;100521.69;4948465;29;20665;-69
2022/05/11 02:44:27;;;;;;;10.60;4.60;;;17.90;99.90;;;18.42;nan;100516.00;4953708;29;20632;-68
2022/05/11 02:46:55;;;;;;;7.00;4.93;;;17.80;99.90;;;18.41;nan;100519.66;4952561;29;21176;-69
2022/05/11 02:49:23;;;;;;;7.70;5.23;;;17.80;99.90;;;18.37;nan;100520.97;4952681;28;20643;-69
2022/05/11 02:51:50;;;;;;;9.67;5.70;;;17.80;99.90;;;18.38;nan;100521.78;4953176;28;20671;-68
2022/05/11 02:54:17;;;;;;;8.67;5.93;;;17.70;99.90;;;18.26;nan;100516.00;4944641;28;20644;-68
2022/05/11 02:56:45;;;;;;;6.80;5.37;;;17.70;99.90;;;18.35;nan;100515.03;4943781;29;20639;-69
2022/05/11 02:59:12;;;;;;;9.40;5.97;;;17.70;99.90;;;18.29;nan;100517.50;4951098;29;20655;-68
2022/05/11 03:01:39;;;;;;;7.20;5.60;;;17.70;99.90;;;18.25;nan;100519.63;4954004;29;20659;-69
2022/05/11 03:04:06;;;;;;;9.13;6.33;;;17.60;99.90;;;18.29;nan;100515.66;4951946;29;21229;-67
2022/05/11 03:06:33;;;;;;;8.13;6.17;;;17.60;99.90;;;18.23;nan;100518.94;4951586;29;21159;-68
2022/05/11 03:09:00;;;;;;;8.17;6.47;;;17.60;99.90;;;18.19;nan;100508.88;4952872;28;21181;-69
2022/05/11 03:11:27;;;;;;;6.83;5.77;;;17.60;99.90;;;18.23;nan;100511.03;4953321;28;21069;-68
2022/05/11 03:13:54;;;;;;;6.30;5.70;;;17.60;99.90;;;18.28;nan;100508.75;4952167;28;20624;-69
2022/05/11 03:16:25;;;;;;;8.43;5.60;;;17.60;99.90;;;18.22;nan;100508.56;4952520;29;20656;-68
2022/05/11 03:18:52;;;;;;;7.43;5.10;;;17.60;99.90;;;18.14;nan;100514.66;4953321;29;20675;-68
2022/05/11 03:21:21;;;;;;;7.20;4.90;;;17.50;99.90;;;18.04;nan;100513.16;4951026;28;21058;-68
2022/05/11 03:23:48;;;;;;;8.50;6.03;;;17.50;99.90;;;17.84;nan;100509.94;4952080;28;21095;-66
2022/05/11 03:26:15;;;;;;;6.27;4.80;;;17.30;99.90;;;17.93;nan;100508.16;4952120;28;20624;-69
2022/05/11 03:28:42;;;;;;;12.23;5.77;;;17.30;99.90;;;17.84;nan;100507.31;4953155;28;21025;-69
2022/05/11 03:31:09;;;;;;;10.63;6.87;;;17.20;99.90;;;17.73;nan;100504.94;4953583;28;20627;-68
2022/05/11 03:36:22;;;;;;;8.50;5.40;;;17.20;99.90;;;17.66;nan;100506.56;4951188;29;21290;-69
2022/05/11 03:38:49;;;;;;;8.90;5.60;;;17.10;99.90;;;17.73;nan;100502.31;4950548;29;20628;-69
2022/05/11 03:41:17;;;;;;;10.57;6.10;;;17.10;99.90;;;17.72;nan;100503.28;4951448;28;20638;-68
2022/05/11 03:43:44;;;;;;;7.47;5.80;;;17.10;99.90;;;17.67;nan;100495.03;4933121;29;20970;-68
2022/05/11 03:46:14;;;;;;;5.90;4.70;;;17.10;99.90;;;17.62;nan;100497.31;4932187;29;20696;-65
2022/05/11 03:48:42;;;;;;;9.57;6.20;;;17.10;99.90;;;17.58;nan;100498.63;4951799;28;20620;-71
2022/05/11 03:51:10;;;;;;;7.20;5.67;;;17.00;99.90;;;17.60;nan;100494.00;4952479;28;20628;-69
2022/05/11 03:53:37;;;;;;;16.53;6.20;;;17.00;99.90;;;17.65;nan;100495.16;4951640;28;20647;-68
2022/05/11 03:56:04;;;;;;;8.00;5.60;;;17.00;99.90;;;17.66;nan;100499.47;4945617;28;20681;-67
2022/05/11 03:58:31;;;;;;;8.10;6.20;;;17.00;99.90;;;17.70;nan;100498.16;4934501;29;21229;-68
2022/05/11 04:00:58;;;;;;;6.87;5.80;;;17.10;99.90;;;17.72;nan;100498.84;4944604;29;20632;-69
2022/05/11 04:03:26;;;;;;;7.37;5.73;;;17.10;99.90;;;17.64;nan;100497.97;4950507;29;20635;-69
2022/05/11 04:05:53;;;;;;;8.00;6.30;;;17.00;99.90;;;17.69;nan;100504.44;4950450;29;20648;-69
2022/05/11 04:08:20;;;;;;;14.27;6.43;;;17.10;99.90;;;17.70;nan;100503.44;4951885;29;20648;-68
2022/05/11 04:10:47;;;;;;;9.40;7.03;;;17.10;99.90;;;17.74;nan;100509.22;4949737;29;21259;-69
2022/05/11 04:13:14;;;;;;;12.23;6.40;;;17.10;99.90;;;17.74;nan;100503.94;4950084;29;21053;-68
2022/05/11 04:15:41;;;;;;;7.57;5.47;;;17.10;99.90;;;17.67;nan;100505.59;4950059;29;20676;-68
2022/05/11 04:18:08;;;;;;;7.73;5.50;;;17.10;99.90;;;17.64;nan;100505.91;4952852;29;20619;-69
2022/05/11 04:20:35;;;;;;;9.23;6.30;;;17.00;99.90;;;17.71;nan;100504.28;4950670;29;20671;-68
2022/05/11 04:23:02;;;;;;;9.10;5.60;;;17.10;99.90;;;17.72;nan;100503.28;4952339;28;20741;-69
2022/05/11 04:25:29;;;;;;;6.77;5.60;;;17.10;99.90;;;17.71;nan;100499.00;4952314;29;20635;-69
2022/05/11 04:27:56;;;;;;;11.33;6.73;;;17.10;99.90;;;17.59;nan;100495.00;4951576;28;21192;-68
2022/05/11 04:30:26;;;;;;;10.30;6.70;;;17.00;99.90;;;17.48;nan;100493.41;4938744;28;20644;-68
2022/05/11 04:32:55;;;;;;;7.10;5.10;;;16.90;99.90;;;17.40;nan;100492.56;4950867;28;20667;-68
2022/05/11 04:35:22;;;;;;;7.60;5.70;;;16.80;99.90;;;17.39;nan;100491.75;4949062;29;20806;-68
2022/05/11 04:37:49;;;;;;;9.33;6.40;;;16.80;99.90;;;17.37;nan;100493.72;4950950;28;20628;-68
2022/05/11 04:40:16;;;;;;;9.00;6.40;;;16.80;99.90;;;17.42;nan;100491.41;4956306;28;21183;-66
2022/05/11 04:42:44;;;;;;;13.97;5.40;;;16.80;99.90;;;17.37;nan;100500.78;4955070;28;20663;-68
2022/05/11 04:45:12;;;;;;;7.90;6.13;;;16.80;99.90;;;17.46;nan;100497.22;4954316;28;20639;-67
2022/05/11 04:47:39;;;;;;;6.43;4.90;;;16.90;99.90;;;17.46;nan;100498.03;4954915;28;20632;-68
2022/05/11 04:50:07;;;;;;;3.60;2.80;;;16.90;99.90;;;17.38;nan;100502.44;4952886;29;20648;-68
2022/05/11 04:52:34;;;;;;;7.60;5.80;;;16.90;99.90;;;17.44;nan;100505.25;4953959;28;20678;-68
2022/05/11 04:55:01;;;;;;;8.27;6.20;;;16.90;99.90;;;17.51;nan;100501.06;4955227;28;20627;-69
2022/05/11 04:57:28;;;;;;;9.47;6.50;;;16.90;99.90;;;17.47;nan;100497.06;4953115;29;20647;-69
2022/05/11 04:59:56;;;;;;;7.97;6.00;;;16.90;99.90;;;17.51;nan;100494.94;4955697;29;20624;-69
2022/05/11 05:02:27;;;;;;;4.70;3.40;;;17.00;99.90;;;17.92;nan;100498.56;4954609;28;20660;-69
2022/05/11 05:04:59;;;;;;;5.13;4.20;;;17.40;99.90;;;17.97;nan;100494.50;4952017;29;20726;-68
2022/05/11 05:07:27;;;;;;;7.33;5.77;;;17.50;99.90;;;18.32;nan;100491.56;4954815;28;20632;-68
2022/05/11 05:09:54;;;;;;;13.20;5.10;;;17.90;99.90;;;18.60;nan;100492.13;4955711;28;20639;-69
2022/05/11 05:12:23;;;;;;;8.10;5.00;;;18.20;99.90;;;18.91;nan;100494.94;4954977;29;20727;-69
2022/05/11 05:14:50;;;;;;;6.30;4.70;;;18.50;99.90;;;19.15;nan;100493.06;4955963;28;20631;-69
2022/05/11 05:17:17;;;;;;;7.70;5.57;;;18.70;99.90;;;19.46;nan;100495.00;4954150;29;20722;-68
2022/05/11 05:19:46;;;;;;;8.93;5.03;;;19.00;99.90;;;19.72;nan;100493.72;4953952;28;20632;-68
2022/05/11 05:22:13;;;;;;;5.97;5.13;;;19.30;99.90;;;19.96;nan;100495.44;4954245;28;20660;-68
2022/05/11 05:24:41;;;;;;;9.50;6.20;;;19.60;99.90;;;20.08;nan;100499.34;4953760;28;20628;-68
2022/05/11 05:27:12;;;;;;;7.07;5.27;;;19.90;99.90;;;20.47;nan;100499.28;4954191;28;20636;-66
2022/05/11 05:32:25;;;;;;;10.30;5.13;;;20.30;99.90;;;20.85;nan;100503.59;4935911;29;20675;-68
2022/05/11 05:34:52;;;;;;;8.97;5.37;;;20.40;99.90;;;21.05;nan;100502.13;4946302;29;20659;-69
2022/05/11 05:37:19;;;;;;;4.90;4.00;;;20.60;99.90;;;21.39;nan;100505.09;4954437;29;21266;-68
2022/05/11 05:39:47;;;;;;;8.47;5.50;;;21.00;99.90;;;21.75;nan;100507.81;4955271;28;20624;-69
2022/05/11 05:42:24;;;;;;;13.30;5.50;;;21.30;99.90;;;22.03;nan;100502.66;4955295;29;20652;-69
2022/05/11 05:44:51;;;;;;;6.40;5.47;;;21.60;99.90;;;22.21;nan;100509.19;4954814;28;20669;-68
2022/05/11 05:47:18;;;;;;;5.40;3.97;;;21.80;99.90;;;22.42;nan;100501.25;4952976;28;21275;-69
2022/05/11 05:49:46;;;;;;;5.90;5.00;;;22.10;99.90;;;22.51;nan;100509.13;4951461;28;21163;-69
2022/05/11 05:52:23;;;;;;;7.43;5.40;;;22.20;99.90;;;22.88;nan;100501.69;4953712;28;20671;-68
2022/05/11 05:54:55;;;;;;;6.10;5.03;;;22.70;99.90;;;23.27;nan;100500.34;4953202;28;20626;-68
2022/05/11 05:57:22;;;;;;;7.63;5.37;;;22.90;99.90;;;23.51;nan;100510.56;4949392;28;20668;-68
2022/05/11 05:59:49;;;;;;;11.30;4.87;;;23.40;99.40;;;24.24;nan;100512.50;4946495;29;20639;-69
2022/05/11 06:02:16;;;;;;;4.70;3.60;;;23.90;98.70;;;24.77;nan;100514.25;4953294;29;20660;-69
2022/05/11 06:04:49;;;;;;;7.23;5.63;;;24.40;97.20;;;25.24;nan;100507.84;4953658;28;20640;-69
2022/05/11 06:07:18;;;;;;;5.30;4.80;;;25.00;95.90;;;25.58;nan;100512.09;4951828;29;21068;-65
2022/05/11 06:09:46;;;;;;;6.17;4.70;;;25.30;94.90;;;26.19;nan;100525.88;4953724;28;20648;-68
2022/05/11 06:12:15;;;;;;;5.80;4.70;;;25.90;93.20;;;26.91;nan;100512.84;4953667;28;20655;-68
2022/05/11 06:14:43;;;;;;;6.83;4.20;;;26.60;91.80;;;27.55;nan;100518.63;4951125;29;21453;-69
2022/05/11 06:17:25;;;;;;;6.53;5.10;;;27.30;90.00;;;27.96;nan;100514.44;4952376;29;20659;-70
2022/05/11 06:19:53;;;;;;;6.50;4.97;;;27.70;86.60;;;28.21;nan;100515.97;4954044;29;20634;-69
2022/05/11 06:22:21;;;;;;;6.03;5.43;;;28.10;83.00;;;28.81;nan;100514.06;4932916;29;21256;-68
2022/05/11 06:24:48;;;;;;;6.03;5.20;;;28.50;81.10;;;29.32;nan;100516.09;4938295;29;20690;-69
2022/05/11 06:27:19;;;;;;;5.40;4.90;;;29.10;77.60;;;29.85;nan;100519.41;4952202;29;20642;-66
2022/05/11 06:30:00;;;;;;;5.93;4.60;;;29.50;75.60;;;30.59;nan;100521.06;4952084;29;20647;-69
2022/05/11 06:32:27;;;;;;;7.03;4.97;;;30.20;73.20;;;30.68;nan;100524.19;4952866;28;21249;-69
2022/05/11 06:34:55;;;;;;;5.67;5.17;;;30.50;70.40;;;31.75;nan;100522.03;4951746;28;20640;-69
2022/05/11 06:37:24;;;;;;;5.20;4.73;;;31.20;68.00;;;31.69;nan;100509.56;4947301;28;21244;-69
2022/05/11 06:39:51;;;;;;;4.73;4.23;;;31.10;67.10;;;31.56;nan;100509.91;4935069;29;20613;-70
2022/05/11 06:42:20;;;;;;;6.37;4.87;;;31.90;63.60;;;31.80;nan;100506.72;4945281;29;20653;-69
2022/05/11 06:44:47;;;;;;;6.63;5.03;;;31.50;63.50;;;33.05;nan;100506.34;4951068;29;20636;-70
2022/05/11 06:47:15;;;;;;;5.27;4.77;;;32.50;61.70;;;33.45;nan;100498.47;4953162;28;20647;-69
2022/05/11 06:49:42;;;;;;;4.90;4.30;;;32.80;60.40;;;33.02;nan;100503.34;4952222;28;20647;-69
2022/05/11 06:52:10;;;;;;;5.07;4.60;;;33.00;58.70;;;34.06;nan;100509.53;4952417;28;20675;-69
2022/05/11 07:00:14;;;;;;;5.00;4.60;;;34.50;55.70;;;35.58;nan;100506.53;4951367;28;20640;-69
2022/05/11 07:02:41;;;;;;;4.37;4.03;;;35.20;54.00;;;34.95;nan;100499.84;4950387;29;20663;-69
2022/05/11 07:05:10;;;;;;;5.17;4.67;;;34.50;53.90;;;35.41;nan;100499.78;4948330;29;21045;-69
2022/05/11 07:07:39;;;;;;;5.13;4.63;;;35.20;53.00;;;35.18;nan;100501.22;4952063;28;20707;-69
2022/05/11 07:10:07;;;;;;;9.53;4.80;;;34.60;53.30;;;34.95;nan;100502.56;4951611;28;21065;-68
2022/05/11 07:12:38;;;;;;;5.43;3.80;;;34.30;53.30;;;35.67;nan;100499.44;4951754;29;20664;-69
2022/05/11 07:15:08;;;;;;;4.53;4.20;;;35.50;51.90;;;36.21;nan;100496.72;4953681;28;21184;-69
2022/05/11 07:17:42;;;;;;;4.90;4.50;;;35.70;51.10;;;37.01;nan;100498.00;4949849;28;20676;-69
2022/05/11 07:20:22;;;;;;;3.30;3.00;;;36.60;49.90;;;35.75;nan;100500.75;4951117;28;20639;-69
2022/05/11 07:22:49;;;;;;;5.10;4.70;;;35.70;49.60;;;36.61;nan;100497.53;4950709;29;20663;-69
2022/05/11 07:25:21;;;;;;;4.10;3.90;;;36.00;50.00;;;36.86;nan;100497.31;4950833;28;20647;-68
2022/05/11 07:27:50;;;;;;;5.20;4.63;;;36.50;49.20;;;36.24;nan;100498.06;4935135;29;20635;-69
2022/05/11 07:30:26;;;;;;;4.10;3.80;;;35.90;49.40;;;36.06;nan;100494.09;4948845;28;20649;-69
2022/05/11 07:32:59;;;;;;;4.80;4.50;;;35.90;48.80;;;35.50;nan;100487.31;4937664;29;21010;-71
2022/05/11 07:35:28;;;;;;;4.37;3.97;;;35.30;49.30;;;36.53;nan;100490.78;4947053;29;20695;-70
2022/05/11 07:37:55;;;;;;;4.77;4.40;;;36.00;49.10;;;36.71;nan;100484.66;4952270;28;20683;-70
2022/05/11 07:40:23;;;;;;;5.17;4.77;;;36.20;48.70;;;38.35;nan;100486.78;4949817;29;20646;-70
2022/05/11 07:42:50;;;;;;;5.33;4.83;;;37.90;47.80;;;38.12;nan;100484.94;4952372;28;20645;-71
2022/05/11 07:45:18;;;;;;;4.60;4.30;;;37.80;46.80;;;36.82;nan;100486.19;4951489;29;20639;-70
2022/05/11 07:47:45;;;;;;;4.83;4.43;;;36.70;47.30;;;38.36;nan;100488.38;4951260;28;20636;-70
2022/05/11 07:50:14;;;;;;;5.37;4.60;;;37.90;46.70;;;38.77;nan;100492.09;4951845;28;20633;-70
2022/05/11 07:52:44;;;;;;;5.07;4.50;;;38.20;46.40;;;36.75;nan;100476.72;4957468;23;20713;-64
2022/05/11 07:55:12;;;;;;;4.67;4.33;;;37.40;46.10;;;37.92;nan;100484.13;4899062;29;20659;-64
2022/05/11 08:00:28;;;;;;;5.00;4.67;;;37.40;46.80;;;38.20;nan;100471.47;4917217;29;20636;-64
2022/05/11 08:02:56;;;;;;;4.87;4.47;;;37.80;46.30;;;38.24;nan;100477.97;4931700;29;20668;-64
2022/05/11 08:05:24;;;;;;;5.00;4.70;;;37.90;46.20;;;39.01;nan;100476.38;4916907;29;20783;-64
2022/05/11 08:07:55;;;;;;;4.90;4.60;;;38.60;45.70;;;37.29;nan;100474.56;4912687;29;20622;-64
2022/05/11 08:10:30;;;;;;;4.50;4.30;;;37.70;45.00;;;39.24;nan;100471.84;4902702;29;20660;-65
2022/05/11 08:12:59;;;;;;;4.90;4.53;;;38.70;45.70;;;39.73;nan;100466.47;4930904;29;20679;-64
2022/05/11 08:15:31;;;;;;;4.83;4.53;;;39.40;44.60;;;40.00;nan;100471.06;4928888;29;20649;-64
2022/05/11 08:18:00;;;;;;;4.73;4.33;;;39.70;44.60;;;38.27;nan;100461.00;4931013;29;21386;-64
2022/05/11 08:20:32;;;;;;;5.13;4.63;;;38.20;44.40;;;38.48;nan;100469.66;4914943;29;20641;-64
2022/05/11 08:23:02;;;;;;;5.27;4.90;;;38.20;44.60;;;38.60;nan;100453.63;4931762;29;20671;-64
2022/05/11 08:25:32;;;;;;;3.83;3.60;;;38.20;44.60;;;38.37;nan;100457.31;4927751;29;20641;-64
2022/05/11 08:28:00;;;;;;;4.93;4.47;;;38.40;44.00;;;39.23;nan;100451.16;4914043;29;20640;-65
2022/05/11 08:33:23;;;;;;;5.00;4.60;;;39.80;43.40;;;40.04;nan;100451.00;4912943;29;20665;-66
2022/05/11 08:36:14;;;;;;;6.20;5.60;;;39.60;43.30;;;38.55;nan;100454.53;4916429;29;20974;-66
2022/05/11 08:38:45;;;;;;;5.07;4.60;;;38.60;43.80;;;39.93;nan;100448.81;4913586;29;20628;-65
2022/05/11 08:41:40;;;;;;;7.17;4.60;;;39.60;43.50;;;38.89;nan;100447.97;4896476;29;20626;-65
2022/05/11 08:44:21;;;;;;;4.80;4.43;;;38.70;43.30;;;39.45;nan;100438.38;4895662;29;20654;-64
2022/05/11 08:47:15;;;;;;;5.03;4.63;;;38.90;43.90;;;39.05;nan;100447.38;4913158;29;20637;-66
2022/05/11 08:50:06;;;;;;;4.80;4.40;;;39.00;43.20;;;40.70;nan;100446.66;4900591;29;20705;-66
2022/05/11 08:52:54;;;;;;;5.07;4.77;;;40.50;42.30;;;41.24;nan;100449.00;4929602;29;21064;-65
2022/05/11 08:55:39;;;;;;;6.43;4.60;;;40.80;41.80;;;43.44;nan;100447.47;4929744;29;20995;-67
2022/05/11 08:58:23;;;;;;;3.43;3.17;;;43.00;41.30;;;41.95;nan;100430.44;4912308;29;20684;-66
2022/05/11 09:00:54;;;;;;;5.00;4.70;;;43.20;39.40;;;43.53;nan;100439.94;4907096;29;21013;-64
2022/05/11 09:03:31;;;;;;;4.77;4.50;;;43.00;40.00;;;43.40;nan;100438.28;4919236;29;20780;-66
2022/05/11 09:06:01;;;;;;;5.00;4.60;;;43.50;39.40;;;42.43;nan;100440.06;4938388;29;20621;-66
2022/05/11 09:08:38;;;;;;;4.47;4.17;;;42.20;39.80;;;43.38;nan;100426.81;4915088;29;20656;-65
2022/05/11 09:11:07;;;;;;;5.10;4.73;;;43.00;39.50;;;42.49;nan;100434.44;4931631;29;20726;-66
2022/05/11 09:13:37;;;;;;;4.70;4.43;;;42.20;39.80;;;42.44;nan;100427.97;4929780;29;21069;-65
2022/05/11 09:16:44;;;;;;;4.60;4.27;;;42.10;40.40;;;42.35;nan;100426.38;4915842;29;20659;-66
2022/05/11 09:19:25;;;;;;;4.33;4.13;;;41.70;39.60;;;42.14;nan;100417.22;4907068;29;20636;-65
2022/05/11 09:21:58;;;;;;;4.30;4.00;;;41.80;39.70;;;43.89;nan;100420.16;4927590;29;20640;-66
2022/05/11 09:24:28;;;;;;;5.10;4.73;;;43.30;39.40;;;42.19;nan;100420.59;4915717;29;20641;-66
2022/05/11 09:27:21;;;;;;;7.67;4.67;;;42.40;38.90;;;41.65;nan;100413.84;4916198;29;20653;-68
2022/05/11 09:30:14;;;;;;;5.33;4.90;;;41.90;39.50;;;42.19;nan;100417.84;4925870;29;20644;-70
2022/05/11 09:32:48;;;;;;;5.07;4.77;;;42.50;39.20;;;41.73;nan;100398.53;4936085;29;21007;-70
2022/05/11 09:35:15;;;;;;;4.83;4.53;;;41.70;39.30;;;41.42;nan;100395.09;4937485;29;20701;-69
2022/05/11 09:37:44;;;;;;;4.43;4.13;;;41.40;38.90;;;43.60;nan;100399.00;4934803;29;20679;-70
2022/05/11 09:40:21;;;;;;;4.87;4.47;;;43.40;38.60;;;42.91;nan;100406.06;4933874;29;20637;-71
2022/05/11 09:42:54;;;;;;;2.47;2.27;;;43.10;38.30;;;40.91;nan;100385.59;4926606;29;20652;-67
2022/05/11 09:45:51;;;;;;;4.27;3.87;;;42.10;38.60;;;42.32;nan;100400.41;4919274;29;20633;-72
2022/05/11 09:48:31;;;;;;;4.63;4.33;;;42.80;38.80;;;40.73;nan;100389.38;4907910;29;20655;-72
2022/05/11 09:51:53;;;;;;;5.30;4.80;;;41.90;38.70;;;41.77;nan;100399.50;4923823;29;21019;-72
2022/05/11 09:54:46;;;;;;;4.73;4.43;;;41.70;39.10;;;42.27;nan;100383.34;4921915;29;20636;-65
2022/05/11 09:57:13;;;;;;;4.73;4.53;;;42.40;39.20;;;43.63;nan;100392.84;4934506;29;20677;-66
2022/05/11 09:59:49;;;;;;;4.20;4.00;;;43.10;38.70;;;42.16;nan;100382.06;4933942;29;20637;-66
2022/05/11 10:02:32;;;;;;;4.80;4.50;;;42.20;38.50;;;41.15;nan;100368.75;4903221;29;20657;-66
2022/05/11 10:05:08;;;;;;;4.50;4.20;;;41.90;39.20;;;41.19;nan;100364.25;4921720;29;20633;-66
2022/05/11 10:07:46;;;;;;;4.23;3.93;;;41.10;39.50;;;40.66;nan;100369.88;4919738;29;20644;-67
2022/05/11 10:10:38;;;;;;;7.10;5.50;;;41.00;39.50;;;40.39;nan;100361.84;4915680;29;21008;-66
2022/05/11 10:13:31;;;;;;;13.37;4.67;;;40.60;40.60;;;39.88;nan;100361.50;4900192;29;20666;-65
2022/05/11 10:22:27;;;;;;;5.10;4.70;;;37.00;43.20;;;36.82;nan;100344.00;4909175;29;20645;-66
2022/05/11 10:25:31;;;;;;;5.33;4.33;;;36.20;44.60;;;35.92;nan;100332.88;4930033;29;20639;-64
2022/05/11 10:28:37;;;;;;;5.00;4.60;;;35.20;45.60;;;34.45;nan;100328.38;4925157;29;20622;-66
2022/05/11 10:31:43;;;;;;;4.77;4.27;;;34.00;46.20;;;33.75;nan;100331.91;4923186;29;20644;-64
2022/05/11 10:34:28;;;;;;;5.87;5.07;;;32.90;47.30;;;32.88;nan;100327.28;4921555;29;20724;-65
2022/05/11 10:37:28;;;;;;;5.30;4.60;;;32.10;47.90;;;32.40;nan;100316.72;4929882;29;21196;-64
2022/05/11 10:40:04;;;;;;;4.80;4.40;;;31.70;48.40;;;31.79;nan;100304.63;4924680;29;20994;-65
2022/05/11 10:43:13;;;;;;;3.63;3.33;;;31.00;50.00;;;31.18;nan;100305.88;4934017;29;20665;-65
2022/05/11 10:46:11;;;;;;;5.80;5.30;;;30.50;49.80;;;31.16;nan;100308.00;4902891;29;20626;-66
2022/05/11 10:49:21;;;;;;;5.60;4.47;;;30.30;50.80;;;31.44;nan;100296.19;4914802;29;20618;-65
2022/05/11 10:52:34;;;;;;;5.30;4.90;;;30.60;50.90;;;30.98;nan;100289.47;4923985;29;20700;-65
2022/05/11 10:55:16;;;;;;;5.80;5.30;;;30.40;50.80;;;31.41;nan;100289.47;4933499;29;20649;-65
2022/05/11 10:58:11;;;;;;;5.77;4.77;;;30.60;51.30;;;31.57;nan;100290.41;4934384;29;20680;-65
2022/05/11 11:01:15;;;;;;;5.07;4.67;;;30.70;50.20;;;31.19;nan;100276.00;4935886;29;20616;-65
2022/05/11 11:03:55;;;;;;;6.40;4.87;;;30.60;50.70;;;31.08;nan;100278.81;4919884;29;20688;-65
2022/05/11 11:09:43;;;;;;;4.23;3.93;;;29.90;50.90;;;30.20;nan;100271.66;4915743;29;20621;-65
2022/05/11 11:12:53;;;;;;;10.73;4.67;;;29.50;51.80;;;30.01;nan;100270.31;4929993;29;20657;-64
2022/05/11 11:15:28;;;;;;;7.83;6.77;;;29.20;52.40;;;30.24;nan;100269.31;4930210;29;20641;-64
2022/05/11 11:17:57;;;;;;;5.13;4.63;;;29.40;53.00;;;30.37;nan;100250.97;4917036;29;20684;-64
2022/05/11 11:20:26;;;;;;;5.17;4.77;;;29.50;53.10;;;30.50;nan;100250.59;4932807;29;20651;-66
2022/05/11 11:23:23;;;;;;;4.27;3.77;;;29.70;52.90;;;30.33;nan;100243.63;4916575;29;20665;-65